Youngsville, NC

1:31 AM EDT on October 02, 2014 (GMT -0400)
Country Brook | Change Station
CLOSE
Current Station
Personal Weather Station
Location: Youngsville, NC
Elevation: 449 ft
Nearby Weather Stations

Elev 449 ft 36.01 °N, 78.48 °W | Updated 39 seconds ago

Mostly Cloudy
Mostly Cloudy
60.6 °F
Feels Like 60.6 °F
N
0.0
Wind Variable Wind from NNW
Gusts 0.0 mph

Today
High -- | Low -- °F
--% Chance of Precip.
Yesterday
High -- | Low -- °F
Precip. -- in
7:09 AM 6:56 PM
First Quarter, 55% visible
Pressure 30.07 in
Visibility 3.0 miles
Clouds Scattered Clouds 8000 ft
Dew Point 59 °F
Humidity 95%
Rainfall 0.00 in
Snow Depth Not available.
UV 0 out of 12
Pollen 4.40 out of 12
Ozone Good
PM2.5 Moderate
Flu Activity Not available.
METAR KLHZ 020515Z AUTO 00000KT 3SM BR SCT080 15/15 A3007 RMK AO2

More Conditions Fewer Conditions

Pressure 30.07 in
Visibility 3.0 miles
Clouds Scattered Clouds 8000 ft
Dew Point 59 °F
Humidity 95%
Rainfall 0.00 in
Snow Depth Not available.
UV 0 out of 12
Pollen 4.40 out of 12
Ozone Good
PM2.5 Moderate
Flu Activity Not available.
METAR KLHZ 020515Z AUTO 00000KT 3SM BR SCT080 15/15 A3007 RMK AO2

More Conditions Fewer Conditions

10-Day Weather Forecast

Almanac

Astronomy

Oct. 02, 2014 Rise Set
Actual Time 7:09 AM EDT 6:56 PM EDT
Civil Twilight 6:44 AM EDT 7:21 PM EDT
Nautical Twilight 6:14 AM EDT 7:51 PM EDT
Astronomical Twilight 5:44 AM EDT 8:21 PM EDT
Moon 2:51 PM EDT 12:34 AM EDT
Length of Visible Light 12h 37m
Length of Day
11h 46m
Tomorrow will be 2m 14s shorter.
First Quarter, 55% of the Moon is Illuminated
Today
First Quarter
Oct 8
Full
Oct 15
Last Quarter
Oct 23
New
Oct 30
First Quarter

Today's Extremes

State Highs State Lows

Community

WunderPhotos

Upload Photos

1,758,197 photos uploaded!

Nearby

Air Quality

  Air Quality AQ Index Pollutant
Yesterday Moderate
PM2.5
Yesterday Good
OZONE
Current Moderate
PM2.5
Current Good
OZONE
Thursday Moderate
PM2.5
Thursday Moderate
OZONE
Friday Moderate
PM2.5
Friday Good
OZONE
Saturday Good
PM2.5
Saturday Good
OZONE

Snow Depth

Station Depth Elevation
No new snow has been reported.

Earthquake Activity

City Distance Mag. Time & Date
No recent earthquake activity has been reported nearby.
Minimum magnitude displayed is 2.5.

Coastal Water Temperatures

Place Temperature
No Stations Reporting

Nearby Weather Stations